sensor_id;sensor_type;location;lat;lon;timestamp;P1;durP1;ratioP1;P2;durP2;ratioP2
18280;SDS011;9266;51.132;17.062;2023-08-08T00:00:18;6.30;;;3.37;;
18280;SDS011;9266;51.132;17.062;2023-08-08T00:02:45;4.63;;;2.90;;
18280;SDS011;9266;51.132;17.062;2023-08-08T00:05:12;6.70;;;2.90;;
18280;SDS011;9266;51.132;17.062;2023-08-08T00:07:39;5.53;;;2.90;;
18280;SDS011;9266;51.132;17.062;2023-08-08T00:10:06;7.17;;;3.03;;
18280;SDS011;9266;51.132;17.062;2023-08-08T00:12:33;6.33;;;3.20;;
18280;SDS011;9266;51.132;17.062;2023-08-08T00:15:02;3.50;;;2.70;;
18280;SDS011;9266;51.132;17.062;2023-08-08T00:17:29;5.23;;;2.70;;
18280;SDS011;9266;51.132;17.062;2023-08-08T00:19:56;4.67;;;2.70;;
18280;SDS011;9266;51.132;17.062;2023-08-08T00:22:23;4.63;;;2.80;;
18280;SDS011;9266;51.132;17.062;2023-08-08T00:24:50;5.47;;;2.87;;
18280;SDS011;9266;51.132;17.062;2023-08-08T00:27:17;3.90;;;2.63;;
18280;SDS011;9266;51.132;17.062;2023-08-08T00:29:44;3.20;;;2.47;;
18280;SDS011;9266;51.132;17.062;2023-08-08T00:32:13;5.53;;;2.40;;
18280;SDS011;9266;51.132;17.062;2023-08-08T00:34:40;5.53;;;2.83;;
18280;SDS011;9266;51.132;17.062;2023-08-08T00:37:07;6.63;;;2.83;;
18280;SDS011;9266;51.132;17.062;2023-08-08T00:39:34;5.50;;;2.80;;
18280;SDS011;9266;51.132;17.062;2023-08-08T00:42:00;5.77;;;2.30;;
18280;SDS011;9266;51.132;17.062;2023-08-08T00:44:27;5.07;;;2.60;;
18280;SDS011;9266;51.132;17.062;2023-08-08T00:46:54;4.37;;;2.70;;
18280;SDS011;9266;51.132;17.062;2023-08-08T00:49:23;4.90;;;2.90;;
18280;SDS011;9266;51.132;17.062;2023-08-08T00:51:50;4.93;;;2.80;;
18280;SDS011;9266;51.132;17.062;2023-08-08T00:54:17;5.97;;;3.00;;
18280;SDS011;9266;51.132;17.062;2023-08-08T00:56:44;6.57;;;2.63;;
18280;SDS011;9266;51.132;17.062;2023-08-08T00:59:12;4.87;;;2.50;;
18280;SDS011;9266;51.132;17.062;2023-08-08T01:01:41;8.30;;;3.23;;
18280;SDS011;9266;51.132;17.062;2023-08-08T01:04:08;8.13;;;2.87;;
18280;SDS011;9266;51.132;17.062;2023-08-08T01:06:37;8.50;;;2.67;;
18280;SDS011;9266;51.132;17.062;2023-08-08T01:09:09;6.00;;;2.90;;
18280;SDS011;9266;51.132;17.062;2023-08-08T01:11:44;4.47;;;2.47;;
18280;SDS011;9266;51.132;17.062;2023-08-08T01:14:13;4.57;;;2.97;;
18280;SDS011;9266;51.132;17.062;2023-08-08T01:16:43;6.77;;;2.57;;
18280;SDS011;9266;51.132;17.062;2023-08-08T01:19:11;2.93;;;2.43;;
18280;SDS011;9266;51.132;17.062;2023-08-08T01:21:48;6.00;;;2.77;;
18280;SDS011;9266;51.132;17.062;2023-08-08T01:24:21;4.87;;;2.83;;
18280;SDS011;9266;51.132;17.062;2023-08-08T01:26:48;4.07;;;2.60;;
18280;SDS011;9266;51.132;17.062;2023-08-08T01:29:16;5.40;;;2.70;;
18280;SDS011;9266;51.132;17.062;2023-08-08T01:31:43;5.53;;;2.47;;
18280;SDS011;9266;51.132;17.062;2023-08-08T01:34:10;4.27;;;2.83;;
18280;SDS011;9266;51.132;17.062;2023-08-08T01:36:39;4.87;;;2.80;;
18280;SDS011;9266;51.132;17.062;2023-08-08T01:39:11;10.83;;;3.00;;
18280;SDS011;9266;51.132;17.062;2023-08-08T01:41:44;5.87;;;3.07;;
18280;SDS011;9266;51.132;17.062;2023-08-08T01:44:14;6.23;;;2.90;;
18280;SDS011;9266;51.132;17.062;2023-08-08T01:46:42;5.17;;;2.87;;
18280;SDS011;9266;51.132;17.062;2023-08-08T01:49:09;7.33;;;3.00;;
18280;SDS011;9266;51.132;17.062;2023-08-08T01:51:36;6.23;;;3.30;;
18280;SDS011;9266;51.132;17.062;2023-08-08T01:54:03;4.63;;;3.00;;
18280;SDS011;9266;51.132;17.062;2023-08-08T01:56:30;10.13;;;3.10;;
18280;SDS011;9266;51.132;17.062;2023-08-08T01:58:59;5.57;;;2.90;;
18280;SDS011;9266;51.132;17.062;2023-08-08T02:01:26;8.23;;;3.13;;
18280;SDS011;9266;51.132;17.062;2023-08-08T02:03:53;7.60;;;3.07;;
18280;SDS011;9266;51.132;17.062;2023-08-08T02:06:20;6.27;;;3.03;;
18280;SDS011;9266;51.132;17.062;2023-08-08T02:08:47;4.47;;;3.10;;
18280;SDS011;9266;51.132;17.062;2023-08-08T02:11:14;7.57;;;3.20;;
18280;SDS011;9266;51.132;17.062;2023-08-08T02:13:40;6.07;;;3.27;;
18280;SDS011;9266;51.132;17.062;2023-08-08T02:16:09;5.37;;;3.20;;
18280;SDS011;9266;51.132;17.062;2023-08-08T02:18:36;6.40;;;3.27;;
18280;SDS011;9266;51.132;17.062;2023-08-08T02:21:05;5.93;;;3.03;;
18280;SDS011;9266;51.132;17.062;2023-08-08T02:23:33;7.43;;;2.90;;
18280;SDS011;9266;51.132;17.062;2023-08-08T02:26:00;6.40;;;2.90;;
18280;SDS011;9266;51.132;17.062;2023-08-08T02:28:27;4.90;;;3.03;;
18280;SDS011;9266;51.132;17.062;2023-08-08T02:30:54;5.30;;;2.73;;
18280;SDS011;9266;51.132;17.062;2023-08-08T02:33:22;6.23;;;2.83;;
18280;SDS011;9266;51.132;17.062;2023-08-08T02:35:49;4.97;;;2.83;;
18280;SDS011;9266;51.132;17.062;2023-08-08T02:38:16;5.47;;;3.07;;
18280;SDS011;9266;51.132;17.062;2023-08-08T02:40:43;9.30;;;3.40;;
18280;SDS011;9266;51.132;17.062;2023-08-08T02:43:10;6.93;;;3.30;;
18280;SDS011;9266;51.132;17.062;2023-08-08T02:45:37;4.23;;;2.67;;
18280;SDS011;9266;51.132;17.062;2023-08-08T02:48:04;5.97;;;3.00;;
18280;SDS011;9266;51.132;17.062;2023-08-08T02:50:33;5.50;;;3.30;;
18280;SDS011;9266;51.132;17.062;2023-08-08T02:53:00;5.97;;;3.33;;
18280;SDS011;9266;51.132;17.062;2023-08-08T02:55:27;6.07;;;3.10;;
18280;SDS011;9266;51.132;17.062;2023-08-08T02:57:54;9.33;;;3.17;;
18280;SDS011;9266;51.132;17.062;2023-08-08T03:00:21;6.90;;;3.00;;
18280;SDS011;9266;51.132;17.062;2023-08-08T03:02:48;5.93;;;3.40;;
18280;SDS011;9266;51.132;17.062;2023-08-08T03:05:15;5.93;;;3.13;;
18280;SDS011;9266;51.132;17.062;2023-08-08T03:07:43;4.73;;;3.23;;
18280;SDS011;9266;51.132;17.062;2023-08-08T03:10:10;4.80;;;2.70;;
18280;SDS011;9266;51.132;17.062;2023-08-08T03:12:37;3.83;;;2.87;;
18280;SDS011;9266;51.132;17.062;2023-08-08T03:15:05;7.17;;;3.40;;
18280;SDS011;9266;51.132;17.062;2023-08-08T03:17:33;7.17;;;3.70;;
18280;SDS011;9266;51.132;17.062;2023-08-08T03:20:00;7.47;;;3.17;;
18280;SDS011;9266;51.132;17.062;2023-08-08T03:22:30;7.00;;;3.30;;
18280;SDS011;9266;51.132;17.062;2023-08-08T03:24:58;7.13;;;3.20;;
18280;SDS011;9266;51.132;17.062;2023-08-08T03:27:25;7.03;;;3.07;;
18280;SDS011;9266;51.132;17.062;2023-08-08T03:29:52;8.70;;;3.10;;
18280;SDS011;9266;51.132;17.062;2023-08-08T03:32:19;6.87;;;3.20;;
18280;SDS011;9266;51.132;17.062;2023-08-08T03:34:46;4.90;;;3.33;;
18280;SDS011;9266;51.132;17.062;2023-08-08T03:37:13;4.77;;;3.33;;
18280;SDS011;9266;51.132;17.062;2023-08-08T03:39:40;8.73;;;3.10;;
18280;SDS011;9266;51.132;17.062;2023-08-08T03:42:09;5.30;;;3.10;;
18280;SDS011;9266;51.132;17.062;2023-08-08T03:44:36;7.73;;;3.17;;
18280;SDS011;9266;51.132;17.062;2023-08-08T03:47:03;8.43;;;3.50;;
18280;SDS011;9266;51.132;17.062;2023-08-08T03:49:30;5.73;;;3.03;;
18280;SDS011;9266;51.132;17.062;2023-08-08T03:51:57;4.27;;;2.83;;
18280;SDS011;9266;51.132;17.062;2023-08-08T03:54:24;7.37;;;2.97;;
18280;SDS011;9266;51.132;17.062;2023-08-08T03:56:51;6.70;;;3.20;;
18280;SDS011;9266;51.132;17.062;2023-08-08T03:59:20;6.97;;;3.27;;
18280;SDS011;9266;51.132;17.062;2023-08-08T04:01:47;5.20;;;3.33;;
18280;SDS011;9266;51.132;17.062;2023-08-08T04:04:14;5.57;;;2.90;;
18280;SDS011;9266;51.132;17.062;2023-08-08T04:06:41;5.20;;;3.37;;
18280;SDS011;9266;51.132;17.062;2023-08-08T04:09:08;6.77;;;3.07;;
18280;SDS011;9266;51.132;17.062;2023-08-08T04:11:35;5.10;;;2.90;;
18280;SDS011;9266;51.132;17.062;2023-08-08T04:14:02;5.57;;;2.70;;
18280;SDS011;9266;51.132;17.062;2023-08-08T04:16:30;4.70;;;3.03;;
18280;SDS011;9266;51.132;17.062;2023-08-08T04:18:57;4.63;;;2.40;;
18280;SDS011;9266;51.132;17.062;2023-08-08T04:21:25;6.63;;;2.50;;
18280;SDS011;9266;51.132;17.062;2023-08-08T04:23:53;4.80;;;2.70;;
18280;SDS011;9266;51.132;17.062;2023-08-08T04:26:20;4.57;;;2.90;;
18280;SDS011;9266;51.132;17.062;2023-08-08T04:28:47;4.57;;;2.60;;
18280;SDS011;9266;51.132;17.062;2023-08-08T04:31:14;4.97;;;3.00;;
18280;SDS011;9266;51.132;17.062;2023-08-08T04:33:43;5.00;;;2.87;;
18280;SDS011;9266;51.132;17.062;2023-08-08T04:36:10;7.73;;;3.10;;
18280;SDS011;9266;51.132;17.062;2023-08-08T04:38:36;7.50;;;3.03;;
18280;SDS011;9266;51.132;17.062;2023-08-08T04:41:03;6.03;;;3.00;;
18280;SDS011;9266;51.132;17.062;2023-08-08T04:43:30;8.33;;;2.90;;
18280;SDS011;9266;51.132;17.062;2023-08-08T04:45:57;4.77;;;3.03;;
18280;SDS011;9266;51.132;17.062;2023-08-08T04:48:24;6.40;;;2.93;;
18280;SDS011;9266;51.132;17.062;2023-08-08T04:50:52;6.23;;;2.90;;
18280;SDS011;9266;51.132;17.062;2023-08-08T04:53:19;5.57;;;2.80;;
18280;SDS011;9266;51.132;17.062;2023-08-08T04:55:46;6.07;;;3.00;;
18280;SDS011;9266;51.132;17.062;2023-08-08T04:58:13;6.37;;;2.60;;
18280;SDS011;9266;51.132;17.062;2023-08-08T05:00:40;5.13;;;2.57;;
18280;SDS011;9266;51.132;17.062;2023-08-08T05:03:07;6.27;;;3.03;;
18280;SDS011;9266;51.132;17.062;2023-08-08T05:05:34;5.10;;;2.93;;
18280;SDS011;9266;51.132;17.062;2023-08-08T05:08:03;5.10;;;2.93;;
18280;SDS011;9266;51.132;17.062;2023-08-08T05:10:30;6.53;;;2.73;;
18280;SDS011;9266;51.132;17.062;2023-08-08T05:12:57;7.60;;;3.20;;
18280;SDS011;9266;51.132;17.062;2023-08-08T05:15:24;3.57;;;3.03;;
18280;SDS011;9266;51.132;17.062;2023-08-08T05:17:51;6.07;;;2.87;;
18280;SDS011;9266;51.132;17.062;2023-08-08T05:20:19;4.77;;;2.50;;
18280;SDS011;9266;51.132;17.062;2023-08-08T05:22:46;5.10;;;2.60;;
18280;SDS011;9266;51.132;17.062;2023-08-08T05:25:14;4.80;;;2.40;;
18280;SDS011;9266;51.132;17.062;2023-08-08T05:27:41;6.17;;;2.90;;
18280;SDS011;9266;51.132;17.062;2023-08-08T05:30:09;5.57;;;2.73;;
18280;SDS011;9266;51.132;17.062;2023-08-08T05:32:36;5.40;;;2.50;;
18280;SDS011;9266;51.132;17.062;2023-08-08T05:35:03;5.40;;;2.87;;
18280;SDS011;9266;51.132;17.062;2023-08-08T05:37:31;6.23;;;3.63;;
18280;SDS011;9266;51.132;17.062;2023-08-08T05:39:58;9.53;;;3.60;;
18280;SDS011;9266;51.132;17.062;2023-08-08T05:42:27;5.60;;;2.97;;
18280;SDS011;9266;51.132;17.062;2023-08-08T05:44:54;6.07;;;2.70;;
18280;SDS011;9266;51.132;17.062;2023-08-08T05:47:21;5.13;;;2.90;;
18280;SDS011;9266;51.132;17.062;2023-08-08T05:49:48;4.50;;;3.03;;
18280;SDS011;9266;51.132;17.062;2023-08-08T05:52:15;5.50;;;2.90;;
18280;SDS011;9266;51.132;17.062;2023-08-08T05:54:42;5.90;;;3.50;;
18280;SDS011;9266;51.132;17.062;2023-08-08T05:57:09;7.07;;;2.83;;
18280;SDS011;9266;51.132;17.062;2023-08-08T05:59:37;4.13;;;2.60;;
18280;SDS011;9266;51.132;17.062;2023-08-08T06:02:04;4.53;;;2.70;;
18280;SDS011;9266;51.132;17.062;2023-08-08T06:04:32;5.07;;;2.57;;
18280;SDS011;9266;51.132;17.062;2023-08-08T06:06:59;4.73;;;2.30;;
18280;SDS011;9266;51.132;17.062;2023-08-08T06:09:26;3.20;;;2.20;;
18280;SDS011;9266;51.132;17.062;2023-08-08T06:11:53;4.77;;;2.40;;
18280;SDS011;9266;51.132;17.062;2023-08-08T06:14:20;5.23;;;2.33;;
18280;SDS011;9266;51.132;17.062;2023-08-08T06:16:49;4.13;;;2.60;;
18280;SDS011;9266;51.132;17.062;2023-08-08T06:19:16;5.07;;;3.20;;
18280;SDS011;9266;51.132;17.062;2023-08-08T06:21:43;3.67;;;2.30;;
18280;SDS011;9266;51.132;17.062;2023-08-08T06:24:12;4.63;;;2.85;;
18280;SDS011;9266;51.132;17.062;2023-08-08T06:26:39;6.22;;;2.35;;
18280;SDS011;9266;51.132;17.062;2023-08-08T06:29:05;5.83;;;2.60;;
18280;SDS011;9266;51.132;17.062;2023-08-08T06:31:32;4.73;;;2.50;;
18280;SDS011;9266;51.132;17.062;2023-08-08T06:34:01;4.63;;;2.40;;
18280;SDS011;9266;51.132;17.062;2023-08-08T06:36:28;4.40;;;2.73;;
18280;SDS011;9266;51.132;17.062;2023-08-08T06:38:55;3.53;;;2.20;;
18280;SDS011;9266;51.132;17.062;2023-08-08T06:41:21;6.30;;;2.43;;
18280;SDS011;9266;51.132;17.062;2023-08-08T06:43:48;3.20;;;2.20;;
18280;SDS011;9266;51.132;17.062;2023-08-08T06:46:15;4.60;;;1.90;;
18280;SDS011;9266;51.132;17.062;2023-08-08T06:48:45;3.63;;;2.00;;
18280;SDS011;9266;51.132;17.062;2023-08-08T06:51:14;2.87;;;2.00;;
18280;SDS011;9266;51.132;17.062;2023-08-08T06:53:41;3.30;;;2.07;;
18280;SDS011;9266;51.132;17.062;2023-08-08T06:56:08;4.70;;;2.10;;
18280;SDS011;9266;51.132;17.062;2023-08-08T06:58:35;2.83;;;2.27;;
18280;SDS011;9266;51.132;17.062;2023-08-08T07:01:02;3.33;;;2.10;;
18280;SDS011;9266;51.132;17.062;2023-08-08T07:03:29;2.85;;;2.00;;
18280;SDS011;9266;51.132;17.062;2023-08-08T07:05:56;6.55;;;2.08;;
18280;SDS011;9266;51.132;17.062;2023-08-08T07:08:25;6.72;;;2.60;;
18280;SDS011;9266;51.132;17.062;2023-08-08T07:10:52;2.72;;;1.73;;
18280;SDS011;9266;51.132;17.062;2023-08-08T07:13:19;4.97;;;1.63;;
18280;SDS011;9266;51.132;17.062;2023-08-08T07:15:45;4.45;;;1.88;;
18280;SDS011;9266;51.132;17.062;2023-08-08T07:18:12;4.65;;;1.98;;
18280;SDS011;9266;51.132;17.062;2023-08-08T07:20:39;4.22;;;2.28;;
18280;SDS011;9266;51.132;17.062;2023-08-08T07:23:06;3.75;;;1.75;;
18280;SDS011;9266;51.132;17.062;2023-08-08T07:25:35;3.22;;;2.50;;
18280;SDS011;9266;51.132;17.062;2023-08-08T07:28:02;3.90;;;1.80;;
18280;SDS011;9266;51.132;17.062;2023-08-08T07:30:29;3.20;;;1.90;;
18280;SDS011;9266;51.132;17.062;2023-08-08T07:32:56;3.63;;;1.90;;
18280;SDS011;9266;51.132;17.062;2023-08-08T07:35:23;3.63;;;2.07;;
18280;SDS011;9266;51.132;17.062;2023-08-08T07:37:50;2.10;;;1.60;;
18280;SDS011;9266;51.132;17.062;2023-08-08T07:40:17;3.37;;;2.20;;
18280;SDS011;9266;51.132;17.062;2023-08-08T07:42:46;5.33;;;1.80;;
18280;SDS011;9266;51.132;17.062;2023-08-08T07:45:14;4.80;;;2.30;;
18280;SDS011;9266;51.132;17.062;2023-08-08T07:47:41;3.60;;;2.00;;
18280;SDS011;9266;51.132;17.062;2023-08-08T07:50:09;3.57;;;1.83;;
18280;SDS011;9266;51.132;17.062;2023-08-08T07:52:38;3.03;;;2.00;;
18280;SDS011;9266;51.132;17.062;2023-08-08T07:55:05;2.60;;;2.17;;
18280;SDS011;9266;51.132;17.062;2023-08-08T07:57:33;4.03;;;2.00;;
18280;SDS011;9266;51.132;17.062;2023-08-08T08:00:01;4.30;;;1.70;;
18280;SDS011;9266;51.132;17.062;2023-08-08T08:02:34;3.20;;;1.30;;
18280;SDS011;9266;51.132;17.062;2023-08-08T08:05:01;2.23;;;1.57;;
18280;SDS011;9266;51.132;17.062;2023-08-08T08:07:30;4.90;;;1.57;;
18280;SDS011;9266;51.132;17.062;2023-08-08T08:09:57;5.30;;;2.00;;
18280;SDS011;9266;51.132;17.062;2023-08-08T08:12:24;3.27;;;1.73;;
18280;SDS011;9266;51.132;17.062;2023-08-08T08:14:51;2.13;;;1.40;;
18280;SDS011;9266;51.132;17.062;2023-08-08T08:17:20;3.97;;;1.43;;
18280;SDS011;9266;51.132;17.062;2023-08-08T08:19:47;3.97;;;1.90;;
18280;SDS011;9266;51.132;17.062;2023-08-08T08:22:14;2.50;;;1.50;;
18280;SDS011;9266;51.132;17.062;2023-08-08T08:24:41;1.93;;;1.43;;
18280;SDS011;9266;51.132;17.062;2023-08-08T08:27:08;2.30;;;1.88;;
18280;SDS011;9266;51.132;17.062;2023-08-08T08:29:35;2.22;;;1.80;;
18280;SDS011;9266;51.132;17.062;2023-08-08T08:32:02;2.55;;;1.67;;
18280;SDS011;9266;51.132;17.062;2023-08-08T08:34:30;5.82;;;2.17;;
18280;SDS011;9266;51.132;17.062;2023-08-08T08:36:57;2.10;;;1.37;;
18280;SDS011;9266;51.132;17.062;2023-08-08T08:39:24;2.13;;;1.50;;
18280;SDS011;9266;51.132;17.062;2023-08-08T08:41:56;2.67;;;1.60;;
18280;SDS011;9266;51.132;17.062;2023-08-08T08:44:26;3.27;;;1.90;;
18280;SDS011;9266;51.132;17.062;2023-08-08T08:46:57;2.13;;;1.47;;
18280;SDS011;9266;51.132;17.062;2023-08-08T08:49:28;2.03;;;1.60;;
18280;SDS011;9266;51.132;17.062;2023-08-08T08:51:59;2.03;;;1.43;;
18280;SDS011;9266;51.132;17.062;2023-08-08T08:54:26;3.00;;;1.83;;
18280;SDS011;9266;51.132;17.062;2023-08-08T08:56:55;3.00;;;1.57;;
18280;SDS011;9266;51.132;17.062;2023-08-08T08:59:22;1.97;;;1.43;;
18280;SDS011;9266;51.132;17.062;2023-08-08T09:01:50;2.40;;;1.40;;
18280;SDS011;9266;51.132;17.062;2023-08-08T09:04:18;1.53;;;1.30;;
18280;SDS011;9266;51.132;17.062;2023-08-08T09:06:48;2.50;;;1.60;;
18280;SDS011;9266;51.132;17.062;2023-08-08T09:09:16;2.60;;;1.50;;
18280;SDS011;9266;51.132;17.062;2023-08-08T09:11:47;2.07;;;1.60;;
18280;SDS011;9266;51.132;17.062;2023-08-08T09:14:15;4.47;;;1.60;;
18280;SDS011;9266;51.132;17.062;2023-08-08T09:16:43;4.17;;;1.50;;
18280;SDS011;9266;51.132;17.062;2023-08-08T09:19:11;2.30;;;1.40;;
18280;SDS011;9266;51.132;17.062;2023-08-08T09:21:38;2.63;;;1.80;;
18280;SDS011;9266;51.132;17.062;2023-08-08T09:24:07;4.67;;;1.70;;
18280;SDS011;9266;51.132;17.062;2023-08-08T09:26:34;3.07;;;2.13;;
18280;SDS011;9266;51.132;17.062;2023-08-08T09:29:01;3.07;;;1.90;;
18280;SDS011;9266;51.132;17.062;2023-08-08T09:31:29;2.57;;;1.63;;
18280;SDS011;9266;51.132;17.062;2023-08-08T09:33:56;2.67;;;1.37;;
18280;SDS011;9266;51.132;17.062;2023-08-08T09:36:24;4.33;;;1.90;;
18280;SDS011;9266;51.132;17.062;2023-08-08T09:38:51;2.30;;;1.70;;
18280;SDS011;9266;51.132;17.062;2023-08-08T09:41:20;2.63;;;1.87;;
18280;SDS011;9266;51.132;17.062;2023-08-08T09:43:47;2.47;;;1.80;;
18280;SDS011;9266;51.132;17.062;2023-08-08T09:46:14;3.00;;;1.60;;
18280;SDS011;9266;51.132;17.062;2023-08-08T09:48:42;4.40;;;3.20;;
18280;SDS011;9266;51.132;17.062;2023-08-08T09:51:09;2.67;;;2.00;;
18280;SDS011;9266;51.132;17.062;2023-08-08T09:53:36;2.67;;;1.67;;
18280;SDS011;9266;51.132;17.062;2023-08-08T09:56:04;1.63;;;1.50;;
18280;SDS011;9266;51.132;17.062;2023-08-08T09:58:34;2.03;;;1.53;;
18280;SDS011;9266;51.132;17.062;2023-08-08T10:01:01;3.33;;;1.80;;
18280;SDS011;9266;51.132;17.062;2023-08-08T10:03:29;4.43;;;3.50;;
18280;SDS011;9266;51.132;17.062;2023-08-08T10:05:58;2.57;;;1.70;;
18280;SDS011;9266;51.132;17.062;2023-08-08T10:08:25;3.27;;;1.70;;
18280;SDS011;9266;51.132;17.062;2023-08-08T10:10:52;4.43;;;2.03;;
18280;SDS011;9266;51.132;17.062;2023-08-08T10:13:21;3.60;;;2.00;;
18280;SDS011;9266;51.132;17.062;2023-08-08T10:15:51;3.60;;;1.90;;
18280;SDS011;9266;51.132;17.062;2023-08-08T10:18:20;3.10;;;2.23;;
18280;SDS011;9266;51.132;17.062;2023-08-08T10:20:48;2.20;;;2.00;;
18280;SDS011;9266;51.132;17.062;2023-08-08T10:23:16;3.03;;;1.70;;
18280;SDS011;9266;51.132;17.062;2023-08-08T10:25:44;5.37;;;1.90;;
18280;SDS011;9266;51.132;17.062;2023-08-08T10:28:12;3.10;;;1.70;;
18280;SDS011;9266;51.132;17.062;2023-08-08T10:30:44;3.40;;;1.60;;
18280;SDS011;9266;51.132;17.062;2023-08-08T10:33:19;2.67;;;1.80;;
18280;SDS011;9266;51.132;17.062;2023-08-08T10:35:57;2.40;;;1.80;;
18280;SDS011;9266;51.132;17.062;2023-08-08T10:38:26;2.03;;;1.80;;
18280;SDS011;9266;51.132;17.062;2023-08-08T10:41:04;3.50;;;2.47;;
18280;SDS011;9266;51.132;17.062;2023-08-08T10:43:31;4.20;;;2.30;;
18280;SDS011;9266;51.132;17.062;2023-08-08T10:45:58;5.23;;;1.70;;
18280;SDS011;9266;51.132;17.062;2023-08-08T10:48:27;3.60;;;1.90;;
18280;SDS011;9266;51.132;17.062;2023-08-08T10:50:55;4.20;;;2.00;;
18280;SDS011;9266;51.132;17.062;2023-08-08T10:53:25;3.93;;;2.30;;
18280;SDS011;9266;51.132;17.062;2023-08-08T10:55:59;2.87;;;2.17;;
18280;SDS011;9266;51.132;17.062;2023-08-08T10:58:36;3.80;;;1.90;;
18280;SDS011;9266;51.132;17.062;2023-08-08T11:01:04;3.90;;;2.40;;
18280;SDS011;9266;51.132;17.062;2023-08-08T11:03:35;3.33;;;1.97;;
18280;SDS011;9266;51.132;17.062;2023-08-08T11:06:03;3.60;;;2.00;;
18280;SDS011;9266;51.132;17.062;2023-08-08T11:08:33;3.60;;;2.03;;
18280;SDS011;9266;51.132;17.062;2023-08-08T11:11:01;3.40;;;1.70;;
18280;SDS011;9266;51.132;17.062;2023-08-08T11:13:28;2.97;;;1.90;;
18280;SDS011;9266;51.132;17.062;2023-08-08T11:15:55;3.73;;;2.10;;
18280;SDS011;9266;51.132;17.062;2023-08-08T11:18:22;2.87;;;1.93;;
18280;SDS011;9266;51.132;17.062;2023-08-08T11:20:52;3.43;;;2.00;;
18280;SDS011;9266;51.132;17.062;2023-08-08T11:23:19;6.07;;;2.40;;
18280;SDS011;9266;51.132;17.062;2023-08-08T11:25:47;4.13;;;2.20;;
18280;SDS011;9266;51.132;17.062;2023-08-08T11:28:16;3.37;;;1.90;;
18280;SDS011;9266;51.132;17.062;2023-08-08T11:30:44;4.73;;;2.27;;
18280;SDS011;9266;51.132;17.062;2023-08-08T11:33:12;4.47;;;2.00;;
18280;SDS011;9266;51.132;17.062;2023-08-08T11:35:43;3.40;;;2.20;;
18280;SDS011;9266;51.132;17.062;2023-08-08T11:38:15;3.13;;;2.20;;
18280;SDS011;9266;51.132;17.062;2023-08-08T11:40:43;3.80;;;2.10;;
18280;SDS011;9266;51.132;17.062;2023-08-08T11:43:10;3.83;;;1.93;;
18280;SDS011;9266;51.132;17.062;2023-08-08T11:45:38;4.43;;;2.23;;
18280;SDS011;9266;51.132;17.062;2023-08-08T11:48:07;3.20;;;2.50;;
18280;SDS011;9266;51.132;17.062;2023-08-08T11:50:36;4.00;;;2.30;;
18280;SDS011;9266;51.132;17.062;2023-08-08T11:53:05;4.40;;;2.10;;
18280;SDS011;9266;51.132;17.062;2023-08-08T11:55:35;3.77;;;2.20;;
18280;SDS011;9266;51.132;17.062;2023-08-08T11:58:03;3.07;;;2.10;;
18280;SDS011;9266;51.132;17.062;2023-08-08T12:00:30;3.20;;;2.17;;
18280;SDS011;9266;51.132;17.062;2023-08-08T12:02:58;4.70;;;2.27;;
18280;SDS011;9266;51.132;17.062;2023-08-08T12:05:26;4.50;;;2.83;;
18280;SDS011;9266;51.132;17.062;2023-08-08T12:07:55;3.03;;;2.30;;
18280;SDS011;9266;51.132;17.062;2023-08-08T12:10:22;4.40;;;2.30;;
18280;SDS011;9266;51.132;17.062;2023-08-08T12:12:54;4.73;;;2.57;;
18280;SDS011;9266;51.132;17.062;2023-08-08T12:15:23;4.30;;;2.30;;
18280;SDS011;9266;51.132;17.062;2023-08-08T12:17:53;4.03;;;2.03;;
18280;SDS011;9266;51.132;17.062;2023-08-08T12:20:20;4.77;;;3.40;;
18280;SDS011;9266;51.132;17.062;2023-08-08T12:22:47;4.03;;;2.30;;
18280;SDS011;9266;51.132;17.062;2023-08-08T12:25:14;7.30;;;3.47;;
18280;SDS011;9266;51.132;17.062;2023-08-08T12:27:41;4.60;;;2.60;;
18280;SDS011;9266;51.132;17.062;2023-08-08T12:30:10;4.20;;;2.50;;
18280;SDS011;9266;51.132;17.062;2023-08-08T12:32:37;4.73;;;2.33;;
18280;SDS011;9266;51.132;17.062;2023-08-08T12:35:04;3.93;;;2.27;;
18280;SDS011;9266;51.132;17.062;2023-08-08T12:37:32;2.40;;;1.90;;
18280;SDS011;9266;51.132;17.062;2023-08-08T12:39:59;5.83;;;2.90;;
18280;SDS011;9266;51.132;17.062;2023-08-08T12:42:27;3.17;;;2.10;;
18280;SDS011;9266;51.132;17.062;2023-08-08T12:44:54;2.47;;;1.97;;
18280;SDS011;9266;51.132;17.062;2023-08-08T12:47:23;2.37;;;1.90;;
18280;SDS011;9266;51.132;17.062;2023-08-08T12:49:49;6.20;;;2.53;;
18280;SDS011;9266;51.132;17.062;2023-08-08T12:52:16;4.10;;;2.10;;
18280;SDS011;9266;51.132;17.062;2023-08-08T12:54:43;2.70;;;1.90;;
18280;SDS011;9266;51.132;17.062;2023-08-08T12:57:10;3.90;;;2.07;;
18280;SDS011;9266;51.132;17.062;2023-08-08T12:59:37;3.77;;;2.13;;
18280;SDS011;9266;51.132;17.062;2023-08-08T13:02:04;4.23;;;2.00;;
18280;SDS011;9266;51.132;17.062;2023-08-08T13:04:33;3.13;;;1.90;;
18280;SDS011;9266;51.132;17.062;2023-08-08T13:07:00;2.17;;;1.80;;
18280;SDS011;9266;51.132;17.062;2023-08-08T13:09:27;6.77;;;2.80;;
18280;SDS011;9266;51.132;17.062;2023-08-08T13:11:54;3.67;;;2.10;;
18280;SDS011;9266;51.132;17.062;2023-08-08T13:14:21;4.17;;;1.97;;
18280;SDS011;9266;51.132;17.062;2023-08-08T13:16:48;2.60;;;1.80;;
18280;SDS011;9266;51.132;17.062;2023-08-08T13:19:16;2.53;;;1.90;;
18280;SDS011;9266;51.132;17.062;2023-08-08T13:21:47;2.53;;;2.00;;
18280;SDS011;9266;51.132;17.062;2023-08-08T13:24:15;4.27;;;2.13;;
18280;SDS011;9266;51.132;17.062;2023-08-08T13:26:42;3.23;;;1.70;;
18280;SDS011;9266;51.132;17.062;2023-08-08T13:29:09;4.13;;;2.00;;
18280;SDS011;9266;51.132;17.062;2023-08-08T13:31:37;4.23;;;2.70;;
18280;SDS011;9266;51.132;17.062;2023-08-08T13:34:04;3.53;;;2.33;;
18280;SDS011;9266;51.132;17.062;2023-08-08T13:36:31;3.57;;;2.33;;
18280;SDS011;9266;51.132;17.062;2023-08-08T13:39:00;3.20;;;2.00;;
18280;SDS011;9266;51.132;17.062;2023-08-08T13:41:27;5.10;;;2.10;;
18280;SDS011;9266;51.132;17.062;2023-08-08T13:43:53;4.77;;;2.00;;
18280;SDS011;9266;51.132;17.062;2023-08-08T13:46:21;4.77;;;2.20;;
18280;SDS011;9266;51.132;17.062;2023-08-08T13:48:48;3.63;;;2.20;;
18280;SDS011;9266;51.132;17.062;2023-08-08T13:51:15;5.37;;;2.60;;
18280;SDS011;9266;51.132;17.062;2023-08-08T13:53:42;3.87;;;2.50;;
18280;SDS011;9266;51.132;17.062;2023-08-08T13:56:11;3.70;;;2.10;;
18280;SDS011;9266;51.132;17.062;2023-08-08T13:58:38;14.23;;;5.03;;
18280;SDS011;9266;51.132;17.062;2023-08-08T14:01:05;8.30;;;3.47;;
18280;SDS011;9266;51.132;17.062;2023-08-08T14:03:32;3.23;;;2.20;;
18280;SDS011;9266;51.132;17.062;2023-08-08T14:05:59;3.53;;;2.07;;
18280;SDS011;9266;51.132;17.062;2023-08-08T14:08:26;3.00;;;2.20;;
18280;SDS011;9266;51.132;17.062;2023-08-08T14:10:53;3.67;;;2.00;;
18280;SDS011;9266;51.132;17.062;2023-08-08T14:13:21;4.80;;;2.00;;
18280;SDS011;9266;51.132;17.062;2023-08-08T14:15:48;3.63;;;2.10;;
18280;SDS011;9266;51.132;17.062;2023-08-08T14:18:16;2.67;;;2.00;;
18280;SDS011;9266;51.132;17.062;2023-08-08T14:20:44;3.17;;;2.33;;
18280;SDS011;9266;51.132;17.062;2023-08-08T14:23:10;3.83;;;2.10;;
18280;SDS011;9266;51.132;17.062;2023-08-08T14:25:37;7.03;;;2.40;;
18280;SDS011;9266;51.132;17.062;2023-08-08T14:28:05;5.37;;;2.10;;
18280;SDS011;9266;51.132;17.062;2023-08-08T14:30:33;4.17;;;2.13;;
18280;SDS011;9266;51.132;17.062;2023-08-08T14:33:00;4.23;;;2.37;;
18280;SDS011;9266;51.132;17.062;2023-08-08T14:35:27;4.37;;;2.53;;
18280;SDS011;9266;51.132;17.062;2023-08-08T14:37:54;3.17;;;2.00;;
18280;SDS011;9266;51.132;17.062;2023-08-08T14:40:21;5.00;;;2.50;;
18280;SDS011;9266;51.132;17.062;2023-08-08T14:42:48;3.67;;;2.10;;
18280;SDS011;9266;51.132;17.062;2023-08-08T14:45:15;4.50;;;2.20;;
18280;SDS011;9266;51.132;17.062;2023-08-08T14:47:44;5.00;;;3.03;;
18280;SDS011;9266;51.132;17.062;2023-08-08T14:50:11;4.20;;;2.07;;